sensor_id;sensor_type;location;lat;lon;timestamp;P1;durP1;ratioP1;P2;durP2;ratioP2
69256;SDS011;56376;53.356;-1.748;2022-11-15T00:01:30;2.15;;;1.80;;
69256;SDS011;56376;53.356;-1.748;2022-11-15T00:03:55;3.85;;;1.98;;
69256;SDS011;56376;53.356;-1.748;2022-11-15T00:06:20;2.47;;;1.58;;
69256;SDS011;56376;53.356;-1.748;2022-11-15T00:08:46;3.85;;;1.58;;
69256;SDS011;56376;53.356;-1.748;2022-11-15T00:11:11;3.20;;;2.30;;
69256;SDS011;56376;53.356;-1.748;2022-11-15T00:13:37;3.25;;;1.80;;
69256;SDS011;56376;53.356;-1.748;2022-11-15T00:16:03;2.72;;;1.45;;
69256;SDS011;56376;53.356;-1.748;2022-11-15T00:18:29;2.92;;;1.67;;
69256;SDS011;56376;53.356;-1.748;2022-11-15T00:20:55;2.33;;;1.70;;
69256;SDS011;56376;53.356;-1.748;2022-11-15T00:23:21;2.60;;;1.42;;
69256;SDS011;56376;53.356;-1.748;2022-11-15T00:25:47;3.08;;;1.52;;
69256;SDS011;56376;53.356;-1.748;2022-11-15T00:28:20;2.83;;;1.35;;
69256;SDS011;56376;53.356;-1.748;2022-11-15T00:30:45;2.25;;;1.60;;
69256;SDS011;56376;53.356;-1.748;2022-11-15T00:33:10;3.33;;;2.13;;
69256;SDS011;56376;53.356;-1.748;2022-11-15T00:35:36;2.53;;;1.50;;
69256;SDS011;56376;53.356;-1.748;2022-11-15T00:38:01;2.38;;;1.60;;
69256;SDS011;56376;53.356;-1.748;2022-11-15T00:40:27;2.70;;;1.38;;
69256;SDS011;56376;53.356;-1.748;2022-11-15T00:42:52;2.30;;;1.50;;
69256;SDS011;56376;53.356;-1.748;2022-11-15T00:45:18;1.67;;;1.35;;
69256;SDS011;56376;53.356;-1.748;2022-11-15T00:47:44;3.00;;;1.50;;
69256;SDS011;56376;53.356;-1.748;2022-11-15T00:50:10;2.25;;;1.20;;
69256;SDS011;56376;53.356;-1.748;2022-11-15T00:52:36;1.67;;;1.20;;
69256;SDS011;56376;53.356;-1.748;2022-11-15T00:55:01;1.75;;;1.27;;
69256;SDS011;56376;53.356;-1.748;2022-11-15T00:57:26;2.47;;;1.40;;
69256;SDS011;56376;53.356;-1.748;2022-11-15T00:59:52;2.38;;;1.35;;
69256;SDS011;56376;53.356;-1.748;2022-11-15T01:02:17;1.58;;;1.20;;
69256;SDS011;56376;53.356;-1.748;2022-11-15T01:04:43;1.70;;;1.35;;
69256;SDS011;56376;53.356;-1.748;2022-11-15T01:07:08;1.45;;;1.35;;
69256;SDS011;56376;53.356;-1.748;2022-11-15T01:09:34;2.20;;;1.50;;
69256;SDS011;56376;53.356;-1.748;2022-11-15T01:11:59;1.23;;;1.08;;
69256;SDS011;56376;53.356;-1.748;2022-11-15T01:14:24;1.70;;;1.40;;
69256;SDS011;56376;53.356;-1.748;2022-11-15T01:16:50;1.70;;;1.30;;
69256;SDS011;56376;53.356;-1.748;2022-11-15T01:19:15;2.13;;;1.30;;
69256;SDS011;56376;53.356;-1.748;2022-11-15T01:21:40;1.90;;;1.40;;
69256;SDS011;56376;53.356;-1.748;2022-11-15T01:24:07;2.25;;;1.40;;
69256;SDS011;56376;53.356;-1.748;2022-11-15T01:26:36;1.80;;;1.27;;
69256;SDS011;56376;53.356;-1.748;2022-11-15T01:29:01;2.50;;;1.48;;
69256;SDS011;56376;53.356;-1.748;2022-11-15T01:31:27;1.63;;;1.30;;
69256;SDS011;56376;53.356;-1.748;2022-11-15T01:33:52;2.53;;;1.50;;
69256;SDS011;56376;53.356;-1.748;2022-11-15T01:36:19;3.67;;;1.70;;
69256;SDS011;56376;53.356;-1.748;2022-11-15T01:38:47;1.95;;;1.38;;
69256;SDS011;56376;53.356;-1.748;2022-11-15T01:41:19;2.15;;;1.70;;
69256;SDS011;56376;53.356;-1.748;2022-11-15T01:43:48;2.13;;;1.60;;
69256;SDS011;56376;53.356;-1.748;2022-11-15T01:46:29;2.13;;;1.60;;
69256;SDS011;56376;53.356;-1.748;2022-11-15T01:49:00;2.00;;;1.40;;
69256;SDS011;56376;53.356;-1.748;2022-11-15T01:51:29;2.25;;;1.45;;
69256;SDS011;56376;53.356;-1.748;2022-11-15T01:53:59;2.00;;;1.40;;
69256;SDS011;56376;53.356;-1.748;2022-11-15T01:56:30;1.58;;;1.45;;
69256;SDS011;56376;53.356;-1.748;2022-11-15T01:59:02;2.13;;;1.55;;
69256;SDS011;56376;53.356;-1.748;2022-11-15T02:01:30;2.53;;;1.60;;
69256;SDS011;56376;53.356;-1.748;2022-11-15T02:04:01;2.20;;;1.60;;
69256;SDS011;56376;53.356;-1.748;2022-11-15T02:06:34;3.55;;;1.60;;
69256;SDS011;56376;53.356;-1.748;2022-11-15T02:09:01;2.60;;;1.95;;
69256;SDS011;56376;53.356;-1.748;2022-11-15T02:11:26;3.08;;;1.95;;
69256;SDS011;56376;53.356;-1.748;2022-11-15T02:13:52;3.65;;;1.80;;
69256;SDS011;56376;53.356;-1.748;2022-11-15T02:22:46;3.33;;;1.80;;
69256;SDS011;56376;53.356;-1.748;2022-11-15T02:33:10;4.38;;;1.90;;
69256;SDS011;56376;53.356;-1.748;2022-11-15T02:38:06;2.92;;;1.73;;
69256;SDS011;56376;53.356;-1.748;2022-11-15T02:40:54;2.28;;;1.40;;
69256;SDS011;56376;53.356;-1.748;2022-11-15T02:47:08;1.92;;;1.20;;
69256;SDS011;56376;53.356;-1.748;2022-11-15T02:49:33;2.88;;;1.63;;
69256;SDS011;56376;53.356;-1.748;2022-11-15T02:52:02;2.03;;;1.33;;
69256;SDS011;56376;53.356;-1.748;2022-11-15T02:54:29;3.17;;;1.30;;
69256;SDS011;56376;53.356;-1.748;2022-11-15T02:57:01;3.60;;;2.03;;
69256;SDS011;56376;53.356;-1.748;2022-11-15T03:02:30;3.10;;;1.58;;
69256;SDS011;56376;53.356;-1.748;2022-11-15T03:10:43;2.33;;;1.30;;
69256;SDS011;56376;53.356;-1.748;2022-11-15T03:13:42;2.25;;;1.38;;
69256;SDS011;56376;53.356;-1.748;2022-11-15T03:16:30;3.13;;;1.75;;
69256;SDS011;56376;53.356;-1.748;2022-11-15T03:19:08;2.25;;;1.20;;
69256;SDS011;56376;53.356;-1.748;2022-11-15T03:21:39;2.58;;;1.35;;
69256;SDS011;56376;53.356;-1.748;2022-11-15T03:24:06;1.95;;;1.55;;
69256;SDS011;56376;53.356;-1.748;2022-11-15T03:26:34;1.67;;;1.30;;
69256;SDS011;56376;53.356;-1.748;2022-11-15T03:29:04;4.55;;;1.40;;
69256;SDS011;56376;53.356;-1.748;2022-11-15T03:31:36;5.45;;;1.60;;
69256;SDS011;56376;53.356;-1.748;2022-11-15T03:34:19;3.05;;;1.20;;
69256;SDS011;56376;53.356;-1.748;2022-11-15T03:36:47;2.30;;;1.23;;
69256;SDS011;56376;53.356;-1.748;2022-11-15T03:39:14;2.70;;;1.15;;
69256;SDS011;56376;53.356;-1.748;2022-11-15T03:41:43;3.33;;;1.77;;
69256;SDS011;56376;53.356;-1.748;2022-11-15T03:47:09;3.78;;;1.77;;
69256;SDS011;56376;53.356;-1.748;2022-11-15T03:49:42;3.15;;;1.30;;
69256;SDS011;56376;53.356;-1.748;2022-11-15T03:52:17;2.70;;;1.45;;
69256;SDS011;56376;53.356;-1.748;2022-11-15T03:54:50;6.63;;;1.48;;
69256;SDS011;56376;53.356;-1.748;2022-11-15T03:57:18;4.93;;;1.30;;
69256;SDS011;56376;53.356;-1.748;2022-11-15T03:59:44;2.53;;;1.23;;
69256;SDS011;56376;53.356;-1.748;2022-11-15T04:02:09;2.90;;;1.40;;
69256;SDS011;56376;53.356;-1.748;2022-11-15T04:04:35;3.75;;;1.30;;
69256;SDS011;56376;53.356;-1.748;2022-11-15T04:07:00;4.50;;;1.30;;
69256;SDS011;56376;53.356;-1.748;2022-11-15T04:09:25;1.45;;;1.00;;
69256;SDS011;56376;53.356;-1.748;2022-11-15T04:11:51;2.90;;;1.40;;
69256;SDS011;56376;53.356;-1.748;2022-11-15T04:14:16;3.67;;;1.52;;
69256;SDS011;56376;53.356;-1.748;2022-11-15T04:16:41;1.55;;;1.10;;
69256;SDS011;56376;53.356;-1.748;2022-11-15T04:19:07;2.22;;;0.93;;
69256;SDS011;56376;53.356;-1.748;2022-11-15T04:21:51;4.63;;;1.30;;
69256;SDS011;56376;53.356;-1.748;2022-11-15T04:24:35;3.53;;;1.65;;
69256;SDS011;56376;53.356;-1.748;2022-11-15T04:27:00;4.15;;;1.27;;
69256;SDS011;56376;53.356;-1.748;2022-11-15T04:29:26;4.55;;;1.55;;
69256;SDS011;56376;53.356;-1.748;2022-11-15T04:34:29;3.17;;;1.42;;
69256;SDS011;56376;53.356;-1.748;2022-11-15T04:36:54;4.03;;;1.50;;
69256;SDS011;56376;53.356;-1.748;2022-11-15T04:39:39;2.97;;;1.83;;
69256;SDS011;56376;53.356;-1.748;2022-11-15T04:42:05;3.95;;;1.67;;
69256;SDS011;56376;53.356;-1.748;2022-11-15T04:44:30;3.35;;;1.95;;
69256;SDS011;56376;53.356;-1.748;2022-11-15T04:46:56;3.10;;;1.70;;
69256;SDS011;56376;53.356;-1.748;2022-11-15T04:49:21;4.38;;;1.90;;
69256;SDS011;56376;53.356;-1.748;2022-11-15T04:51:47;3.45;;;2.05;;
69256;SDS011;56376;53.356;-1.748;2022-11-15T04:54:13;4.55;;;2.30;;
69256;SDS011;56376;53.356;-1.748;2022-11-15T04:56:38;7.03;;;2.17;;
69256;SDS011;56376;53.356;-1.748;2022-11-15T04:59:04;4.20;;;2.15;;
69256;SDS011;56376;53.356;-1.748;2022-11-15T05:01:29;5.82;;;2.53;;
69256;SDS011;56376;53.356;-1.748;2022-11-15T05:03:55;4.25;;;2.10;;
69256;SDS011;56376;53.356;-1.748;2022-11-15T05:06:39;3.75;;;2.40;;
69256;SDS011;56376;53.356;-1.748;2022-11-15T05:09:04;3.35;;;1.95;;
69256;SDS011;56376;53.356;-1.748;2022-11-15T05:11:29;4.20;;;2.30;;
69256;SDS011;56376;53.356;-1.748;2022-11-15T05:13:55;2.97;;;1.98;;
69256;SDS011;56376;53.356;-1.748;2022-11-15T05:16:21;4.68;;;2.40;;
69256;SDS011;56376;53.356;-1.748;2022-11-15T05:18:46;3.08;;;2.20;;
69256;SDS011;56376;53.356;-1.748;2022-11-15T05:21:13;6.93;;;2.60;;
69256;SDS011;56376;53.356;-1.748;2022-11-15T05:23:39;4.15;;;2.65;;
69256;SDS011;56376;53.356;-1.748;2022-11-15T05:26:06;6.40;;;2.90;;
69256;SDS011;56376;53.356;-1.748;2022-11-15T05:28:35;4.72;;;2.50;;
69256;SDS011;56376;53.356;-1.748;2022-11-15T05:31:11;7.00;;;2.97;;
69256;SDS011;56376;53.356;-1.748;2022-11-15T05:33:39;2.53;;;1.55;;
69256;SDS011;56376;53.356;-1.748;2022-11-15T05:36:14;3.67;;;1.60;;
69256;SDS011;56376;53.356;-1.748;2022-11-15T05:38:53;6.00;;;1.75;;
69256;SDS011;56376;53.356;-1.748;2022-11-15T05:41:20;2.10;;;1.70;;
69256;SDS011;56376;53.356;-1.748;2022-11-15T05:43:49;3.45;;;1.83;;
69256;SDS011;56376;53.356;-1.748;2022-11-15T05:46:15;3.55;;;1.98;;
69256;SDS011;56376;53.356;-1.748;2022-11-15T05:48:43;2.80;;;1.55;;
69256;SDS011;56376;53.356;-1.748;2022-11-15T05:51:11;3.80;;;1.42;;
69256;SDS011;56376;53.356;-1.748;2022-11-15T05:53:38;2.08;;;1.70;;
69256;SDS011;56376;53.356;-1.748;2022-11-15T05:56:04;2.55;;;1.60;;
69256;SDS011;56376;53.356;-1.748;2022-11-15T05:58:32;2.80;;;1.58;;
69256;SDS011;56376;53.356;-1.748;2022-11-15T06:00:57;2.30;;;1.40;;
69256;SDS011;56376;53.356;-1.748;2022-11-15T06:03:24;1.58;;;1.40;;
69256;SDS011;56376;53.356;-1.748;2022-11-15T06:05:49;3.10;;;1.50;;
69256;SDS011;56376;53.356;-1.748;2022-11-15T06:08:15;2.35;;;1.20;;
69256;SDS011;56376;53.356;-1.748;2022-11-15T06:10:40;1.67;;;1.23;;
69256;SDS011;56376;53.356;-1.748;2022-11-15T06:13:06;2.72;;;1.42;;
69256;SDS011;56376;53.356;-1.748;2022-11-15T06:15:31;1.35;;;1.13;;
69256;SDS011;56376;53.356;-1.748;2022-11-15T06:17:58;2.08;;;1.20;;
69256;SDS011;56376;53.356;-1.748;2022-11-15T06:20:25;3.58;;;1.42;;
69256;SDS011;56376;53.356;-1.748;2022-11-15T06:22:55;1.75;;;1.40;;
69256;SDS011;56376;53.356;-1.748;2022-11-15T06:25:24;1.40;;;1.10;;
69256;SDS011;56376;53.356;-1.748;2022-11-15T06:27:54;2.15;;;1.40;;
69256;SDS011;56376;53.356;-1.748;2022-11-15T06:30:20;1.75;;;1.17;;
69256;SDS011;56376;53.356;-1.748;2022-11-15T06:32:47;1.88;;;1.38;;
69256;SDS011;56376;53.356;-1.748;2022-11-15T06:35:12;3.08;;;1.55;;
69256;SDS011;56376;53.356;-1.748;2022-11-15T06:37:38;1.77;;;1.08;;
69256;SDS011;56376;53.356;-1.748;2022-11-15T06:40:04;1.77;;;1.20;;
69256;SDS011;56376;53.356;-1.748;2022-11-15T06:42:30;1.27;;;1.17;;
69256;SDS011;56376;53.356;-1.748;2022-11-15T06:44:56;1.38;;;1.20;;
69256;SDS011;56376;53.356;-1.748;2022-11-15T06:47:21;2.20;;;1.33;;
69256;SDS011;56376;53.356;-1.748;2022-11-15T06:49:46;1.00;;;0.93;;
69256;SDS011;56376;53.356;-1.748;2022-11-15T06:52:12;1.42;;;1.10;;
69256;SDS011;56376;53.356;-1.748;2022-11-15T06:54:37;1.52;;;1.10;;
69256;SDS011;56376;53.356;-1.748;2022-11-15T06:57:03;2.85;;;1.23;;
69256;SDS011;56376;53.356;-1.748;2022-11-15T06:59:29;1.77;;;1.50;;
69256;SDS011;56376;53.356;-1.748;2022-11-15T07:01:55;1.10;;;1.00;;
69256;SDS011;56376;53.356;-1.748;2022-11-15T07:04:20;2.65;;;1.23;;
69256;SDS011;56376;53.356;-1.748;2022-11-15T07:06:46;2.22;;;0.93;;
69256;SDS011;56376;53.356;-1.748;2022-11-15T07:09:12;1.70;;;1.17;;
69256;SDS011;56376;53.356;-1.748;2022-11-15T07:11:38;1.75;;;1.20;;
69256;SDS011;56376;53.356;-1.748;2022-11-15T07:14:03;2.13;;;1.27;;
69256;SDS011;56376;53.356;-1.748;2022-11-15T07:16:29;1.45;;;1.35;;
69256;SDS011;56376;53.356;-1.748;2022-11-15T07:18:55;1.45;;;1.33;;
69256;SDS011;56376;53.356;-1.748;2022-11-15T07:21:20;3.40;;;1.85;;
69256;SDS011;56376;53.356;-1.748;2022-11-15T07:23:46;2.60;;;1.50;;
69256;SDS011;56376;53.356;-1.748;2022-11-15T07:26:11;2.55;;;1.50;;
69256;SDS011;56376;53.356;-1.748;2022-11-15T07:28:36;2.22;;;1.73;;
69256;SDS011;56376;53.356;-1.748;2022-11-15T07:31:05;2.08;;;1.45;;
69256;SDS011;56376;53.356;-1.748;2022-11-15T07:33:33;3.70;;;1.70;;
69256;SDS011;56376;53.356;-1.748;2022-11-15T07:35:59;2.90;;;1.42;;
69256;SDS011;56376;53.356;-1.748;2022-11-15T07:38:26;1.77;;;1.50;;
69256;SDS011;56376;53.356;-1.748;2022-11-15T07:40:59;2.60;;;1.52;;
69256;SDS011;56376;53.356;-1.748;2022-11-15T07:43:26;4.72;;;2.00;;
69256;SDS011;56376;53.356;-1.748;2022-11-15T07:45:52;1.58;;;1.38;;
69256;SDS011;56376;53.356;-1.748;2022-11-15T07:48:18;2.35;;;1.52;;
69256;SDS011;56376;53.356;-1.748;2022-11-15T07:50:47;3.63;;;1.80;;
69256;SDS011;56376;53.356;-1.748;2022-11-15T07:53:13;2.88;;;1.92;;
69256;SDS011;56376;53.356;-1.748;2022-11-15T07:55:39;3.38;;;1.90;;
69256;SDS011;56376;53.356;-1.748;2022-11-15T07:58:07;2.47;;;2.22;;
69256;SDS011;56376;53.356;-1.748;2022-11-15T08:00:35;2.28;;;2.00;;
69256;SDS011;56376;53.356;-1.748;2022-11-15T08:03:02;2.65;;;2.13;;
69256;SDS011;56376;53.356;-1.748;2022-11-15T08:05:49;2.47;;;2.28;;
69256;SDS011;56376;53.356;-1.748;2022-11-15T08:08:16;4.40;;;2.20;;
69256;SDS011;56376;53.356;-1.748;2022-11-15T08:10:41;1.98;;;1.80;;
69256;SDS011;56376;53.356;-1.748;2022-11-15T08:13:08;2.13;;;2.00;;
69256;SDS011;56376;53.356;-1.748;2022-11-15T08:15:35;2.08;;;1.88;;
69256;SDS011;56376;53.356;-1.748;2022-11-15T08:18:05;1.85;;;1.73;;
69256;SDS011;56376;53.356;-1.748;2022-11-15T08:20:37;2.22;;;2.03;;
69256;SDS011;56376;53.356;-1.748;2022-11-15T08:23:03;2.00;;;1.80;;
69256;SDS011;56376;53.356;-1.748;2022-11-15T08:25:30;2.17;;;1.95;;
69256;SDS011;56376;53.356;-1.748;2022-11-15T08:28:01;2.75;;;2.00;;
69256;SDS011;56376;53.356;-1.748;2022-11-15T08:30:33;1.88;;;1.70;;
69256;SDS011;56376;53.356;-1.748;2022-11-15T08:33:01;2.63;;;1.80;;
69256;SDS011;56376;53.356;-1.748;2022-11-15T08:35:27;1.67;;;1.58;;
69256;SDS011;56376;53.356;-1.748;2022-11-15T08:37:53;1.98;;;1.70;;
69256;SDS011;56376;53.356;-1.748;2022-11-15T08:40:18;2.40;;;1.88;;
69256;SDS011;56376;53.356;-1.748;2022-11-15T08:42:47;1.75;;;1.63;;
69256;SDS011;56376;53.356;-1.748;2022-11-15T08:45:13;1.58;;;1.45;;
69256;SDS011;56376;53.356;-1.748;2022-11-15T08:47:39;1.40;;;1.30;;
69256;SDS011;56376;53.356;-1.748;2022-11-15T08:50:04;1.40;;;1.30;;
69256;SDS011;56376;53.356;-1.748;2022-11-15T08:52:30;1.30;;;1.20;;
69256;SDS011;56376;53.356;-1.748;2022-11-15T08:54:56;1.33;;;1.20;;
69256;SDS011;56376;53.356;-1.748;2022-11-15T08:57:22;1.30;;;1.20;;
69256;SDS011;56376;53.356;-1.748;2022-11-15T08:59:47;2.10;;;1.20;;
69256;SDS011;56376;53.356;-1.748;2022-11-15T09:02:13;1.65;;;1.40;;
69256;SDS011;56376;53.356;-1.748;2022-11-15T09:04:42;1.45;;;1.35;;
69256;SDS011;56376;53.356;-1.748;2022-11-15T09:07:11;3.00;;;1.30;;
69256;SDS011;56376;53.356;-1.748;2022-11-15T09:09:38;2.05;;;1.48;;
69256;SDS011;56376;53.356;-1.748;2022-11-15T09:12:04;2.33;;;1.20;;
69256;SDS011;56376;53.356;-1.748;2022-11-15T09:14:30;1.40;;;1.30;;
69256;SDS011;56376;53.356;-1.748;2022-11-15T09:16:56;1.20;;;1.10;;
69256;SDS011;56376;53.356;-1.748;2022-11-15T09:19:21;1.77;;;1.30;;
69256;SDS011;56376;53.356;-1.748;2022-11-15T09:21:47;2.05;;;1.27;;
69256;SDS011;56376;53.356;-1.748;2022-11-15T09:24:12;1.30;;;1.20;;
69256;SDS011;56376;53.356;-1.748;2022-11-15T09:26:38;1.30;;;1.20;;
69256;SDS011;56376;53.356;-1.748;2022-11-15T09:29:04;1.20;;;1.10;;
69256;SDS011;56376;53.356;-1.748;2022-11-15T09:31:29;1.30;;;1.02;;
69256;SDS011;56376;53.356;-1.748;2022-11-15T09:33:55;1.23;;;1.10;;
69256;SDS011;56376;53.356;-1.748;2022-11-15T09:36:20;1.40;;;1.30;;
69256;SDS011;56376;53.356;-1.748;2022-11-15T09:38:46;1.10;;;0.93;;
69256;SDS011;56376;53.356;-1.748;2022-11-15T09:49:06;2.40;;;1.23;;
69256;SDS011;56376;53.356;-1.748;2022-11-15T09:51:33;1.58;;;1.48;;
69256;SDS011;56376;53.356;-1.748;2022-11-15T09:56:35;1.40;;;1.30;;
69256;SDS011;56376;53.356;-1.748;2022-11-15T10:01:39;1.95;;;1.30;;
69256;SDS011;56376;53.356;-1.748;2022-11-15T10:04:14;1.40;;;1.30;;
69256;SDS011;56376;53.356;-1.748;2022-11-15T10:06:42;2.25;;;1.30;;
69256;SDS011;56376;53.356;-1.748;2022-11-15T10:11:40;1.20;;;1.10;;
69256;SDS011;56376;53.356;-1.748;2022-11-15T10:14:11;1.60;;;1.23;;
69256;SDS011;56376;53.356;-1.748;2022-11-15T10:19:39;1.10;;;1.00;;
69256;SDS011;56376;53.356;-1.748;2022-11-15T10:22:28;1.27;;;1.17;;
69256;SDS011;56376;53.356;-1.748;2022-11-15T10:27:34;1.30;;;1.20;;
69256;SDS011;56376;53.356;-1.748;2022-11-15T10:30:00;1.20;;;1.10;;
69256;SDS011;56376;53.356;-1.748;2022-11-15T10:32:25;1.20;;;1.10;;
69256;SDS011;56376;53.356;-1.748;2022-11-15T10:34:51;1.42;;;1.33;;
69256;SDS011;56376;53.356;-1.748;2022-11-15T10:37:35;1.40;;;1.30;;
69256;SDS011;56376;53.356;-1.748;2022-11-15T10:40:20;1.08;;;1.08;;
69256;SDS011;56376;53.356;-1.748;2022-11-15T10:42:48;1.20;;;1.10;;
69256;SDS011;56376;53.356;-1.748;2022-11-15T10:45:30;0.95;;;0.95;;
69256;SDS011;56376;53.356;-1.748;2022-11-15T10:50:47;1.13;;;1.00;;
69256;SDS011;56376;53.356;-1.748;2022-11-15T10:53:25;0.70;;;0.70;;
69256;SDS011;56376;53.356;-1.748;2022-11-15T10:55:57;1.73;;;0.93;;
69256;SDS011;56376;53.356;-1.748;2022-11-15T11:03:38;0.90;;;0.90;;
69256;SDS011;56376;53.356;-1.748;2022-11-15T11:06:06;1.10;;;1.00;;
69256;SDS011;56376;53.356;-1.748;2022-11-15T11:08:34;0.90;;;0.90;;
69256;SDS011;56376;53.356;-1.748;2022-11-15T11:11:00;1.05;;;0.80;;
69256;SDS011;56376;53.356;-1.748;2022-11-15T11:19:11;1.40;;;0.98;;
69256;SDS011;56376;53.356;-1.748;2022-11-15T11:24:44;0.95;;;0.82;;
69256;SDS011;56376;53.356;-1.748;2022-11-15T11:32:28;0.88;;;0.80;;
69256;SDS011;56376;53.356;-1.748;2022-11-15T11:35:08;0.88;;;0.80;;
69256;SDS011;56376;53.356;-1.748;2022-11-15T11:37:47;1.00;;;0.90;;
69256;SDS011;56376;53.356;-1.748;2022-11-15T11:48:28;0.90;;;0.90;;
69256;SDS011;56376;53.356;-1.748;2022-11-15T11:51:10;1.00;;;0.90;;
69256;SDS011;56376;53.356;-1.748;2022-11-15T11:53:49;0.80;;;0.80;;
69256;SDS011;56376;53.356;-1.748;2022-11-15T11:56:28;0.57;;;0.57;;
69256;SDS011;56376;53.356;-1.748;2022-11-15T11:59:00;1.48;;;0.85;;
69256;SDS011;56376;53.356;-1.748;2022-11-15T12:01:34;2.15;;;0.90;;
69256;SDS011;56376;53.356;-1.748;2022-11-15T12:04:08;1.30;;;1.08;;
69256;SDS011;56376;53.356;-1.748;2022-11-15T12:12:30;0.65;;;0.65;;
69256;SDS011;56376;53.356;-1.748;2022-11-15T12:17:34;0.80;;;0.80;;
69256;SDS011;56376;53.356;-1.748;2022-11-15T12:20:13;1.20;;;0.60;;
69256;SDS011;56376;53.356;-1.748;2022-11-15T12:22:46;1.00;;;0.90;;
69256;SDS011;56376;53.356;-1.748;2022-11-15T12:30:45;0.47;;;0.47;;
69256;SDS011;56376;53.356;-1.748;2022-11-15T12:33:32;0.68;;;0.63;;
69256;SDS011;56376;53.356;-1.748;2022-11-15T12:36:44;1.02;;;0.60;;
69256;SDS011;56376;53.356;-1.748;2022-11-15T12:39:01;0.60;;;0.50;;
69256;SDS011;56376;53.356;-1.748;2022-11-15T12:41:31;0.70;;;0.60;;
69256;SDS011;56376;53.356;-1.748;2022-11-15T12:43:58;0.75;;;0.70;;
69256;SDS011;56376;53.356;-1.748;2022-11-15T12:49:03;0.50;;;0.50;;
69256;SDS011;56376;53.356;-1.748;2022-11-15T12:57:17;1.45;;;1.02;;
69256;SDS011;56376;53.356;-1.748;2022-11-15T13:17:45;0.98;;;0.93;;
69256;SDS011;56376;53.356;-1.748;2022-11-15T13:22:40;1.50;;;1.30;;
69256;SDS011;56376;53.356;-1.748;2022-11-15T13:30:49;1.00;;;0.90;;
69256;SDS011;56376;53.356;-1.748;2022-11-15T13:33:19;1.30;;;1.13;;
69256;SDS011;56376;53.356;-1.748;2022-11-15T13:35:55;1.20;;;1.00;;
69256;SDS011;56376;53.356;-1.748;2022-11-15T13:40:49;0.93;;;0.80;;
69256;SDS011;56376;53.356;-1.748;2022-11-15T13:43:25;0.98;;;0.82;;
69256;SDS011;56376;53.356;-1.748;2022-11-15T13:46:06;1.20;;;0.90;;
69256;SDS011;56376;53.356;-1.748;2022-11-15T13:48:35;1.02;;;0.88;;
69256;SDS011;56376;53.356;-1.748;2022-11-15T13:51:01;1.80;;;1.02;;
69256;SDS011;56376;53.356;-1.748;2022-11-15T13:53:30;1.63;;;1.23;;
69256;SDS011;56376;53.356;-1.748;2022-11-15T13:55:58;1.30;;;1.13;;
69256;SDS011;56376;53.356;-1.748;2022-11-15T13:58:24;1.67;;;1.10;;
69256;SDS011;56376;53.356;-1.748;2022-11-15T14:00:59;0.75;;;0.70;;
69256;SDS011;56376;53.356;-1.748;2022-11-15T14:03:27;0.95;;;0.88;;
69256;SDS011;56376;53.356;-1.748;2022-11-15T14:08:32;1.23;;;1.00;;
69256;SDS011;56376;53.356;-1.748;2022-11-15T14:11:17;2.25;;;1.40;;
69256;SDS011;56376;53.356;-1.748;2022-11-15T14:14:02;2.28;;;1.77;;
69256;SDS011;56376;53.356;-1.748;2022-11-15T14:16:44;2.78;;;1.80;;
69256;SDS011;56376;53.356;-1.748;2022-11-15T14:19:56;2.00;;;1.35;;
69256;SDS011;56376;53.356;-1.748;2022-11-15T14:24:37;2.17;;;1.40;;
69256;SDS011;56376;53.356;-1.748;2022-11-15T14:27:20;1.30;;;1.20;;
69256;SDS011;56376;53.356;-1.748;2022-11-15T14:29:46;1.60;;;1.27;;
69256;SDS011;56376;53.356;-1.748;2022-11-15T14:32:19;2.00;;;1.80;;
69256;SDS011;56376;53.356;-1.748;2022-11-15T14:37:26;2.42;;;2.22;;
69256;SDS011;56376;53.356;-1.748;2022-11-15T14:39:53;1.30;;;1.20;;
69256;SDS011;56376;53.356;-1.748;2022-11-15T14:42:19;0.50;;;0.50;;
69256;SDS011;56376;53.356;-1.748;2022-11-15T14:44:46;1.70;;;1.20;;
69256;SDS011;56376;53.356;-1.748;2022-11-15T14:47:12;1.60;;;1.20;;
69256;SDS011;56376;53.356;-1.748;2022-11-15T14:49:37;2.15;;;1.20;;
69256;SDS011;56376;53.356;-1.748;2022-11-15T14:52:07;2.17;;;1.48;;
69256;SDS011;56376;53.356;-1.748;2022-11-15T14:54:41;4.00;;;1.45;;
69256;SDS011;56376;53.356;-1.748;2022-11-15T14:57:06;2.25;;;1.30;;
69256;SDS011;56376;53.356;-1.748;2022-11-15T14:59:32;2.08;;;1.27;;
69256;SDS011;56376;53.356;-1.748;2022-11-15T15:01:57;1.77;;;1.20;;
69256;SDS011;56376;53.356;-1.748;2022-11-15T15:04:24;2.78;;;1.38;;
69256;SDS011;56376;53.356;-1.748;2022-11-15T15:06:50;1.75;;;1.02;;
69256;SDS011;56376;53.356;-1.748;2022-11-15T15:09:17;0.80;;;0.80;;
69256;SDS011;56376;53.356;-1.748;2022-11-15T15:11:43;1.10;;;0.93;;
69256;SDS011;56376;53.356;-1.748;2022-11-15T15:14:09;0.82;;;0.73;;
69256;SDS011;56376;53.356;-1.748;2022-11-15T15:16:39;1.75;;;0.93;;
69256;SDS011;56376;53.356;-1.748;2022-11-15T15:19:04;1.10;;;0.80;;
69256;SDS011;56376;53.356;-1.748;2022-11-15T15:21:30;0.65;;;0.63;;
69256;SDS011;56376;53.356;-1.748;2022-11-15T15:23:58;2.67;;;0.90;;
69256;SDS011;56376;53.356;-1.748;2022-11-15T15:26:23;1.92;;;1.05;;
69256;SDS011;56376;53.356;-1.748;2022-11-15T15:28:49;0.88;;;0.77;;
69256;SDS011;56376;53.356;-1.748;2022-11-15T15:31:16;2.35;;;1.40;;
69256;SDS011;56376;53.356;-1.748;2022-11-15T15:33:41;2.53;;;0.90;;
69256;SDS011;56376;53.356;-1.748;2022-11-15T15:36:13;1.33;;;0.77;;
69256;SDS011;56376;53.356;-1.748;2022-11-15T15:38:41;1.63;;;0.88;;
69256;SDS011;56376;53.356;-1.748;2022-11-15T15:41:11;2.75;;;0.93;;
69256;SDS011;56376;53.356;-1.748;2022-11-15T15:43:36;1.50;;;0.88;;
69256;SDS011;56376;53.356;-1.748;2022-11-15T15:46:02;2.72;;;0.65;;
69256;SDS011;56376;53.356;-1.748;2022-11-15T15:48:27;1.70;;;0.80;;
69256;SDS011;56376;53.356;-1.748;2022-11-15T15:50:53;2.97;;;0.82;;
69256;SDS011;56376;53.356;-1.748;2022-11-15T15:53:18;2.85;;;0.90;;
69256;SDS011;56376;53.356;-1.748;2022-11-15T15:55:44;3.35;;;1.10;;
69256;SDS011;56376;53.356;-1.748;2022-11-15T15:58:09;1.25;;;0.60;;
69256;SDS011;56376;53.356;-1.748;2022-11-15T16:00:35;4.85;;;1.52;;
69256;SDS011;56376;53.356;-1.748;2022-11-15T16:03:01;2.88;;;1.30;;
69256;SDS011;56376;53.356;-1.748;2022-11-15T16:05:26;3.50;;;1.58;;
69256;SDS011;56376;53.356;-1.748;2022-11-15T16:07:51;4.10;;;2.25;;
69256;SDS011;56376;53.356;-1.748;2022-11-15T16:10:18;3.85;;;1.88;;
69256;SDS011;56376;53.356;-1.748;2022-11-15T16:12:47;2.85;;;1.63;;
69256;SDS011;56376;53.356;-1.748;2022-11-15T16:15:13;3.13;;;1.30;;
69256;SDS011;56376;53.356;-1.748;2022-11-15T16:17:39;1.83;;;1.15;;
69256;SDS011;56376;53.356;-1.748;2022-11-15T16:20:15;3.53;;;1.30;;
69256;SDS011;56376;53.356;-1.748;2022-11-15T16:22:45;4.20;;;1.30;;
69256;SDS011;56376;53.356;-1.748;2022-11-15T16:25:11;3.65;;;1.30;;
69256;SDS011;56376;53.356;-1.748;2022-11-15T16:27:36;4.15;;;1.50;;
69256;SDS011;56376;53.356;-1.748;2022-11-15T16:30:03;3.30;;;1.50;;
69256;SDS011;56376;53.356;-1.748;2022-11-15T16:32:29;4.18;;;1.45;;
69256;SDS011;56376;53.356;-1.748;2022-11-15T16:34:54;4.13;;;1.23;;
69256;SDS011;56376;53.356;-1.748;2022-11-15T16:37:22;5.07;;;1.85;;
69256;SDS011;56376;53.356;-1.748;2022-11-15T16:39:48;7.57;;;1.83;;
69256;SDS011;56376;53.356;-1.748;2022-11-15T16:42:13;4.30;;;1.63;;
69256;SDS011;56376;53.356;-1.748;2022-11-15T16:44:39;5.80;;;2.42;;
69256;SDS011;56376;53.356;-1.748;2022-11-15T16:47:04;6.40;;;2.40;;
69256;SDS011;56376;53.356;-1.748;2022-11-15T16:49:29;4.75;;;1.80;;
69256;SDS011;56376;53.356;-1.748;2022-11-15T16:51:55;3.72;;;1.75;;
69256;SDS011;56376;53.356;-1.748;2022-11-15T16:54:20;4.15;;;1.65;;
69256;SDS011;56376;53.356;-1.748;2022-11-15T16:56:46;3.40;;;1.90;;
69256;SDS011;56376;53.356;-1.748;2022-11-15T16:59:15;3.17;;;1.27;;
69256;SDS011;56376;53.356;-1.748;2022-11-15T17:01:42;3.30;;;1.40;;
69256;SDS011;56376;53.356;-1.748;2022-11-15T17:04:14;2.75;;;1.20;;
69256;SDS011;56376;53.356;-1.748;2022-11-15T17:06:42;3.42;;;1.20;;